sensor_id;sensor_type;location;lat;lon;timestamp;P1;durP1;ratioP1;P2;durP2;ratioP2
11431;SDS011;5772;50.940;6.782;2023-09-19T00:00:55;31.93;;;30.53;;
11431;SDS011;5772;50.940;6.782;2023-09-19T00:03:22;32.57;;;31.17;;
11431;SDS011;5772;50.940;6.782;2023-09-19T00:05:48;31.13;;;29.70;;
11431;SDS011;5772;50.940;6.782;2023-09-19T00:08:13;29.60;;;28.30;;
11431;SDS011;5772;50.940;6.782;2023-09-19T00:10:39;30.47;;;28.80;;
11431;SDS011;5772;50.940;6.782;2023-09-19T00:13:04;30.97;;;29.67;;
11431;SDS011;5772;50.940;6.782;2023-09-19T00:15:29;32.47;;;30.97;;
11431;SDS011;5772;50.940;6.782;2023-09-19T00:17:55;31.97;;;30.67;;
11431;SDS011;5772;50.940;6.782;2023-09-19T00:20:22;30.97;;;29.43;;
11431;SDS011;5772;50.940;6.782;2023-09-19T00:22:48;29.00;;;27.70;;
11431;SDS011;5772;50.940;6.782;2023-09-19T00:25:14;29.57;;;28.33;;
11431;SDS011;5772;50.940;6.782;2023-09-19T00:27:39;33.43;;;31.63;;
11431;SDS011;5772;50.940;6.782;2023-09-19T00:30:06;35.03;;;33.33;;
11431;SDS011;5772;50.940;6.782;2023-09-19T00:32:32;30.23;;;29.03;;
11431;SDS011;5772;50.940;6.782;2023-09-19T00:34:57;30.90;;;29.50;;
11431;SDS011;5772;50.940;6.782;2023-09-19T00:37:24;31.60;;;29.33;;
11431;SDS011;5772;50.940;6.782;2023-09-19T00:39:49;31.43;;;30.13;;
11431;SDS011;5772;50.940;6.782;2023-09-19T00:42:17;29.77;;;28.37;;
11431;SDS011;5772;50.940;6.782;2023-09-19T00:44:43;31.20;;;29.73;;
11431;SDS011;5772;50.940;6.782;2023-09-19T00:47:08;30.23;;;28.73;;
11431;SDS011;5772;50.940;6.782;2023-09-19T00:49:34;28.73;;;27.53;;
11431;SDS011;5772;50.940;6.782;2023-09-19T00:51:59;28.03;;;26.93;;
11431;SDS011;5772;50.940;6.782;2023-09-19T00:54:26;28.63;;;27.10;;
11431;SDS011;5772;50.940;6.782;2023-09-19T00:56:51;29.33;;;28.03;;
11431;SDS011;5772;50.940;6.782;2023-09-19T00:59:16;28.07;;;26.90;;
11431;SDS011;5772;50.940;6.782;2023-09-19T01:01:42;27.10;;;25.70;;
11431;SDS011;5772;50.940;6.782;2023-09-19T01:04:08;26.50;;;25.30;;
11431;SDS011;5772;50.940;6.782;2023-09-19T01:06:34;24.83;;;23.53;;
11431;SDS011;5772;50.940;6.782;2023-09-19T01:08:59;23.70;;;22.77;;
11431;SDS011;5772;50.940;6.782;2023-09-19T01:11:28;23.67;;;22.43;;
11431;SDS011;5772;50.940;6.782;2023-09-19T01:13:58;23.10;;;22.10;;
11431;SDS011;5772;50.940;6.782;2023-09-19T01:16:32;21.53;;;20.40;;
11431;SDS011;5772;50.940;6.782;2023-09-19T01:19:02;22.80;;;21.50;;
11431;SDS011;5772;50.940;6.782;2023-09-19T01:21:37;21.73;;;20.73;;
11431;SDS011;5772;50.940;6.782;2023-09-19T01:24:18;21.00;;;20.07;;
11431;SDS011;5772;50.940;6.782;2023-09-19T01:27:28;20.70;;;19.60;;
11431;SDS011;5772;50.940;6.782;2023-09-19T01:30:10;19.57;;;18.57;;
11431;SDS011;5772;50.940;6.782;2023-09-19T01:32:35;21.17;;;19.77;;
11431;SDS011;5772;50.940;6.782;2023-09-19T01:35:01;21.27;;;20.17;;
11431;SDS011;5772;50.940;6.782;2023-09-19T01:37:26;21.10;;;20.20;;
11431;SDS011;5772;50.940;6.782;2023-09-19T01:39:53;19.83;;;18.70;;
11431;SDS011;5772;50.940;6.782;2023-09-19T01:42:23;19.60;;;18.80;;
11431;SDS011;5772;50.940;6.782;2023-09-19T01:44:54;21.50;;;20.30;;
11431;SDS011;5772;50.940;6.782;2023-09-19T01:47:28;20.93;;;20.00;;
11431;SDS011;5772;50.940;6.782;2023-09-19T01:49:59;20.17;;;19.30;;
11431;SDS011;5772;50.940;6.782;2023-09-19T01:52:31;20.60;;;19.70;;
11431;SDS011;5772;50.940;6.782;2023-09-19T01:55:02;21.87;;;20.23;;
11431;SDS011;5772;50.940;6.782;2023-09-19T01:57:32;23.30;;;21.57;;
11431;SDS011;5772;50.940;6.782;2023-09-19T02:00:01;22.97;;;21.43;;
11431;SDS011;5772;50.940;6.782;2023-09-19T02:02:29;22.17;;;21.07;;
11431;SDS011;5772;50.940;6.782;2023-09-19T02:04:54;21.47;;;20.13;;
11431;SDS011;5772;50.940;6.782;2023-09-19T02:07:20;22.47;;;21.07;;
11431;SDS011;5772;50.940;6.782;2023-09-19T02:09:45;22.37;;;21.40;;
11431;SDS011;5772;50.940;6.782;2023-09-19T02:12:10;21.90;;;20.80;;
11431;SDS011;5772;50.940;6.782;2023-09-19T02:14:36;21.00;;;19.80;;
11431;SDS011;5772;50.940;6.782;2023-09-19T02:17:01;22.83;;;21.53;;
11431;SDS011;5772;50.940;6.782;2023-09-19T02:19:28;22.87;;;21.73;;
11431;SDS011;5772;50.940;6.782;2023-09-19T02:21:53;23.10;;;21.90;;
11431;SDS011;5772;50.940;6.782;2023-09-19T02:24:19;21.77;;;20.77;;
11431;SDS011;5772;50.940;6.782;2023-09-19T02:26:44;22.00;;;20.80;;
11431;SDS011;5772;50.940;6.782;2023-09-19T02:29:09;22.27;;;21.27;;
11431;SDS011;5772;50.940;6.782;2023-09-19T02:31:35;23.77;;;22.27;;
11431;SDS011;5772;50.940;6.782;2023-09-19T02:34:00;21.87;;;20.83;;
11431;SDS011;5772;50.940;6.782;2023-09-19T02:36:27;21.73;;;20.63;;
11431;SDS011;5772;50.940;6.782;2023-09-19T02:38:52;20.63;;;19.73;;
11431;SDS011;5772;50.940;6.782;2023-09-19T02:41:18;22.27;;;21.03;;
11431;SDS011;5772;50.940;6.782;2023-09-19T02:43:43;23.20;;;21.70;;
11431;SDS011;5772;50.940;6.782;2023-09-19T02:46:09;23.37;;;21.63;;
11431;SDS011;5772;50.940;6.782;2023-09-19T02:48:34;22.77;;;21.13;;
11431;SDS011;5772;50.940;6.782;2023-09-19T02:51:00;21.90;;;20.80;;
11431;SDS011;5772;50.940;6.782;2023-09-19T02:53:26;22.47;;;21.23;;
11431;SDS011;5772;50.940;6.782;2023-09-19T02:55:52;22.00;;;20.80;;
11431;SDS011;5772;50.940;6.782;2023-09-19T02:58:17;22.30;;;20.67;;
11431;SDS011;5772;50.940;6.782;2023-09-19T03:00:43;23.37;;;21.97;;
11431;SDS011;5772;50.940;6.782;2023-09-19T03:03:08;22.43;;;21.17;;
11431;SDS011;5772;50.940;6.782;2023-09-19T03:05:34;21.33;;;20.07;;
11431;SDS011;5772;50.940;6.782;2023-09-19T03:08:00;20.57;;;19.63;;
11431;SDS011;5772;50.940;6.782;2023-09-19T03:10:27;19.73;;;18.93;;
11431;SDS011;5772;50.940;6.782;2023-09-19T03:12:53;20.63;;;19.63;;
11431;SDS011;5772;50.940;6.782;2023-09-19T03:15:18;21.53;;;20.53;;
11431;SDS011;5772;50.940;6.782;2023-09-19T03:17:43;20.77;;;19.73;;
11431;SDS011;5772;50.940;6.782;2023-09-19T03:20:09;20.90;;;20.00;;
11431;SDS011;5772;50.940;6.782;2023-09-19T03:22:35;20.33;;;19.17;;
11431;SDS011;5772;50.940;6.782;2023-09-19T03:25:01;21.53;;;20.53;;
11431;SDS011;5772;50.940;6.782;2023-09-19T03:27:28;21.47;;;20.27;;
11431;SDS011;5772;50.940;6.782;2023-09-19T03:29:53;22.13;;;21.03;;
11431;SDS011;5772;50.940;6.782;2023-09-19T03:32:19;20.43;;;19.53;;
11431;SDS011;5772;50.940;6.782;2023-09-19T03:34:44;23.47;;;22.27;;
11431;SDS011;5772;50.940;6.782;2023-09-19T03:37:09;21.73;;;20.70;;
11431;SDS011;5772;50.940;6.782;2023-09-19T03:39:35;23.37;;;22.03;;
11431;SDS011;5772;50.940;6.782;2023-09-19T03:42:01;22.37;;;21.10;;
11431;SDS011;5772;50.940;6.782;2023-09-19T03:44:27;19.70;;;18.90;;
11431;SDS011;5772;50.940;6.782;2023-09-19T03:46:53;23.17;;;21.67;;
11431;SDS011;5772;50.940;6.782;2023-09-19T03:49:18;22.30;;;21.07;;
11431;SDS011;5772;50.940;6.782;2023-09-19T03:51:43;21.27;;;19.80;;
11431;SDS011;5772;50.940;6.782;2023-09-19T03:54:09;22.70;;;20.80;;
11431;SDS011;5772;50.940;6.782;2023-09-19T03:56:34;22.50;;;21.50;;
11431;SDS011;5772;50.940;6.782;2023-09-19T03:59:00;20.80;;;19.77;;
11431;SDS011;5772;50.940;6.782;2023-09-19T04:01:26;22.17;;;21.00;;
11431;SDS011;5772;50.940;6.782;2023-09-19T04:03:52;20.17;;;19.27;;
11431;SDS011;5772;50.940;6.782;2023-09-19T04:06:17;20.40;;;19.37;;
11431;SDS011;5772;50.940;6.782;2023-09-19T04:08:42;21.43;;;20.27;;
11431;SDS011;5772;50.940;6.782;2023-09-19T04:11:08;23.20;;;22.07;;
11431;SDS011;5772;50.940;6.782;2023-09-19T04:13:33;21.67;;;20.27;;
11431;SDS011;5772;50.940;6.782;2023-09-19T04:15:58;21.60;;;20.70;;
11431;SDS011;5772;50.940;6.782;2023-09-19T04:18:25;21.50;;;20.13;;
11431;SDS011;5772;50.940;6.782;2023-09-19T04:20:50;22.20;;;21.10;;
11431;SDS011;5772;50.940;6.782;2023-09-19T04:23:16;20.87;;;20.07;;
11431;SDS011;5772;50.940;6.782;2023-09-19T04:25:41;23.43;;;21.70;;
11431;SDS011;5772;50.940;6.782;2023-09-19T04:28:07;21.90;;;20.73;;
11431;SDS011;5772;50.940;6.782;2023-09-19T04:30:32;22.07;;;20.97;;
11431;SDS011;5772;50.940;6.782;2023-09-19T04:32:57;22.83;;;21.43;;
11431;SDS011;5772;50.940;6.782;2023-09-19T04:35:24;24.03;;;22.43;;
11431;SDS011;5772;50.940;6.782;2023-09-19T04:37:50;23.73;;;22.53;;
11431;SDS011;5772;50.940;6.782;2023-09-19T04:40:15;21.47;;;20.47;;
11431;SDS011;5772;50.940;6.782;2023-09-19T04:42:41;24.17;;;22.70;;
11431;SDS011;5772;50.940;6.782;2023-09-19T04:45:06;22.23;;;21.20;;
11431;SDS011;5772;50.940;6.782;2023-09-19T04:47:32;22.03;;;20.93;;
11431;SDS011;5772;50.940;6.782;2023-09-19T04:49:58;22.67;;;21.57;;
11431;SDS011;5772;50.940;6.782;2023-09-19T04:52:24;20.60;;;19.50;;
11431;SDS011;5772;50.940;6.782;2023-09-19T04:54:50;20.80;;;19.37;;
11431;SDS011;5772;50.940;6.782;2023-09-19T04:57:15;21.43;;;20.40;;
11431;SDS011;5772;50.940;6.782;2023-09-19T04:59:40;22.10;;;20.70;;
11431;SDS011;5772;50.940;6.782;2023-09-19T05:02:06;20.30;;;19.43;;
11431;SDS011;5772;50.940;6.782;2023-09-19T05:04:31;21.10;;;19.80;;
11431;SDS011;5772;50.940;6.782;2023-09-19T05:06:56;21.60;;;20.30;;
11431;SDS011;5772;50.940;6.782;2023-09-19T05:09:23;21.53;;;20.33;;
11431;SDS011;5772;50.940;6.782;2023-09-19T05:11:48;21.80;;;20.77;;
11431;SDS011;5772;50.940;6.782;2023-09-19T05:14:14;22.33;;;21.03;;
11431;SDS011;5772;50.940;6.782;2023-09-19T05:16:39;23.30;;;21.80;;
11431;SDS011;5772;50.940;6.782;2023-09-19T05:19:05;22.80;;;21.53;;
11431;SDS011;5772;50.940;6.782;2023-09-19T05:21:30;23.23;;;22.00;;
11431;SDS011;5772;50.940;6.782;2023-09-19T05:23:55;21.77;;;20.53;;
11431;SDS011;5772;50.940;6.782;2023-09-19T05:26:22;22.57;;;21.57;;
11431;SDS011;5772;50.940;6.782;2023-09-19T05:28:47;21.00;;;20.17;;
11431;SDS011;5772;50.940;6.782;2023-09-19T05:31:13;23.50;;;21.87;;
11431;SDS011;5772;50.940;6.782;2023-09-19T05:33:38;22.03;;;21.07;;
11431;SDS011;5772;50.940;6.782;2023-09-19T05:36:04;22.13;;;21.00;;
11431;SDS011;5772;50.940;6.782;2023-09-19T05:38:29;23.13;;;21.50;;
11431;SDS011;5772;50.940;6.782;2023-09-19T05:40:54;22.10;;;20.57;;
11431;SDS011;5772;50.940;6.782;2023-09-19T05:43:21;21.93;;;20.63;;
11431;SDS011;5772;50.940;6.782;2023-09-19T05:45:46;21.63;;;20.30;;
11431;SDS011;5772;50.940;6.782;2023-09-19T05:48:12;21.30;;;20.17;;
11431;SDS011;5772;50.940;6.782;2023-09-19T05:50:38;21.20;;;20.20;;
11431;SDS011;5772;50.940;6.782;2023-09-19T05:53:04;23.17;;;21.87;;
11431;SDS011;5772;50.940;6.782;2023-09-19T05:55:29;23.07;;;21.90;;
11431;SDS011;5772;50.940;6.782;2023-09-19T05:57:55;22.07;;;20.53;;
11431;SDS011;5772;50.940;6.782;2023-09-19T06:00:22;24.00;;;22.80;;
11431;SDS011;5772;50.940;6.782;2023-09-19T06:02:49;22.27;;;20.97;;
11431;SDS011;5772;50.940;6.782;2023-09-19T06:05:15;22.10;;;21.20;;
11431;SDS011;5772;50.940;6.782;2023-09-19T06:07:41;22.27;;;20.93;;
11431;SDS011;5772;50.940;6.782;2023-09-19T06:10:06;21.67;;;20.47;;
11431;SDS011;5772;50.940;6.782;2023-09-19T06:12:32;22.83;;;21.53;;
11431;SDS011;5772;50.940;6.782;2023-09-19T06:14:57;22.17;;;20.93;;
11431;SDS011;5772;50.940;6.782;2023-09-19T06:17:24;22.60;;;21.50;;
11431;SDS011;5772;50.940;6.782;2023-09-19T06:19:50;23.23;;;21.90;;
11431;SDS011;5772;50.940;6.782;2023-09-19T06:22:15;23.73;;;22.70;;
11431;SDS011;5772;50.940;6.782;2023-09-19T06:24:40;24.73;;;22.80;;
11431;SDS011;5772;50.940;6.782;2023-09-19T06:27:06;23.50;;;22.50;;
11431;SDS011;5772;50.940;6.782;2023-09-19T06:29:31;21.80;;;20.47;;
11431;SDS011;5772;50.940;6.782;2023-09-19T06:31:56;23.33;;;21.93;;
11431;SDS011;5772;50.940;6.782;2023-09-19T06:34:23;24.80;;;23.20;;
11431;SDS011;5772;50.940;6.782;2023-09-19T06:36:49;25.43;;;23.97;;
11431;SDS011;5772;50.940;6.782;2023-09-19T06:39:14;22.20;;;21.10;;
11431;SDS011;5772;50.940;6.782;2023-09-19T06:41:39;23.73;;;22.33;;
11431;SDS011;5772;50.940;6.782;2023-09-19T06:44:05;21.63;;;20.63;;
11431;SDS011;5772;50.940;6.782;2023-09-19T06:46:30;23.67;;;22.30;;
11431;SDS011;5772;50.940;6.782;2023-09-19T06:48:56;23.03;;;21.73;;
11431;SDS011;5772;50.940;6.782;2023-09-19T06:51:22;22.30;;;21.03;;
11431;SDS011;5772;50.940;6.782;2023-09-19T06:53:48;22.20;;;21.13;;
11431;SDS011;5772;50.940;6.782;2023-09-19T06:56:13;21.50;;;20.50;;
11431;SDS011;5772;50.940;6.782;2023-09-19T06:58:38;22.33;;;20.80;;
11431;SDS011;5772;50.940;6.782;2023-09-19T07:01:04;23.67;;;22.37;;
11431;SDS011;5772;50.940;6.782;2023-09-19T07:03:29;23.90;;;22.77;;
11431;SDS011;5772;50.940;6.782;2023-09-19T07:05:54;27.93;;;26.70;;
11431;SDS011;5772;50.940;6.782;2023-09-19T07:08:21;28.23;;;26.63;;
11431;SDS011;5772;50.940;6.782;2023-09-19T07:10:47;28.83;;;27.63;;
11431;SDS011;5772;50.940;6.782;2023-09-19T07:13:12;32.93;;;31.23;;
11431;SDS011;5772;50.940;6.782;2023-09-19T07:15:38;30.97;;;29.57;;
11431;SDS011;5772;50.940;6.782;2023-09-19T07:18:04;31.80;;;30.10;;
11431;SDS011;5772;50.940;6.782;2023-09-19T07:20:29;28.93;;;26.80;;
11431;SDS011;5772;50.940;6.782;2023-09-19T07:22:55;27.07;;;25.63;;
11431;SDS011;5772;50.940;6.782;2023-09-19T07:25:21;25.03;;;23.47;;
11431;SDS011;5772;50.940;6.782;2023-09-19T07:27:47;20.43;;;19.30;;
11431;SDS011;5772;50.940;6.782;2023-09-19T07:30:12;21.97;;;20.67;;
11431;SDS011;5772;50.940;6.782;2023-09-19T07:32:38;18.20;;;16.77;;
11431;SDS011;5772;50.940;6.782;2023-09-19T07:35:04;17.73;;;16.83;;
11431;SDS011;5772;50.940;6.782;2023-09-19T07:37:30;18.60;;;17.50;;
11431;SDS011;5772;50.940;6.782;2023-09-19T07:39:55;20.47;;;19.37;;
11431;SDS011;5772;50.940;6.782;2023-09-19T07:42:22;22.13;;;21.03;;
11431;SDS011;5772;50.940;6.782;2023-09-19T07:44:47;22.77;;;21.77;;
11431;SDS011;5772;50.940;6.782;2023-09-19T07:47:13;23.93;;;22.90;;
11431;SDS011;5772;50.940;6.782;2023-09-19T07:49:38;20.90;;;19.70;;
11431;SDS011;5772;50.940;6.782;2023-09-19T07:52:04;16.87;;;15.93;;
11431;SDS011;5772;50.940;6.782;2023-09-19T07:54:29;18.53;;;17.53;;
11431;SDS011;5772;50.940;6.782;2023-09-19T07:56:55;19.33;;;18.27;;
11431;SDS011;5772;50.940;6.782;2023-09-19T07:59:21;18.13;;;17.13;;
11431;SDS011;5772;50.940;6.782;2023-09-19T08:01:47;17.55;;;16.75;;
11431;SDS011;5772;50.940;6.782;2023-09-19T08:04:12;17.35;;;16.40;;
11431;SDS011;5772;50.940;6.782;2023-09-19T08:06:37;15.00;;;14.30;;
11431;SDS011;5772;50.940;6.782;2023-09-19T08:09:03;17.60;;;16.63;;
11431;SDS011;5772;50.940;6.782;2023-09-19T08:11:28;15.88;;;15.18;;
11431;SDS011;5772;50.940;6.782;2023-09-19T08:13:53;15.07;;;14.27;;
11431;SDS011;5772;50.940;6.782;2023-09-19T08:16:20;13.82;;;13.10;;
11431;SDS011;5772;50.940;6.782;2023-09-19T08:18:46;14.55;;;13.52;;
11431;SDS011;5772;50.940;6.782;2023-09-19T08:21:12;14.93;;;14.00;;
11431;SDS011;5772;50.940;6.782;2023-09-19T08:23:37;13.63;;;12.93;;
11431;SDS011;5772;50.940;6.782;2023-09-19T08:26:03;14.05;;;13.43;;
11431;SDS011;5772;50.940;6.782;2023-09-19T08:28:28;13.70;;;13.00;;
11431;SDS011;5772;50.940;6.782;2023-09-19T08:30:53;16.02;;;15.15;;
11431;SDS011;5772;50.940;6.782;2023-09-19T08:33:20;14.55;;;13.75;;
11431;SDS011;5772;50.940;6.782;2023-09-19T08:35:45;13.82;;;13.23;;
11431;SDS011;5772;50.940;6.782;2023-09-19T08:38:11;14.02;;;13.27;;
11431;SDS011;5772;50.940;6.782;2023-09-19T08:40:36;12.90;;;12.20;;
11431;SDS011;5772;50.940;6.782;2023-09-19T08:43:02;14.63;;;13.82;;
11431;SDS011;5772;50.940;6.782;2023-09-19T08:45:28;14.30;;;13.25;;
11431;SDS011;5772;50.940;6.782;2023-09-19T08:47:56;13.90;;;12.93;;
11431;SDS011;5772;50.940;6.782;2023-09-19T08:50:27;13.65;;;13.05;;
11431;SDS011;5772;50.940;6.782;2023-09-19T08:52:53;14.25;;;13.65;;
11431;SDS011;5772;50.940;6.782;2023-09-19T08:55:20;13.95;;;13.35;;
11431;SDS011;5772;50.940;6.782;2023-09-19T08:57:49;13.43;;;12.73;;
11431;SDS011;5772;50.940;6.782;2023-09-19T09:00:15;14.95;;;13.90;;
11431;SDS011;5772;50.940;6.782;2023-09-19T09:02:41;14.73;;;13.70;;
11431;SDS011;5772;50.940;6.782;2023-09-19T09:05:08;14.20;;;13.50;;
11431;SDS011;5772;50.940;6.782;2023-09-19T09:07:35;13.73;;;13.10;;
11431;SDS011;5772;50.940;6.782;2023-09-19T09:10:02;14.85;;;14.20;;
11431;SDS011;5772;50.940;6.782;2023-09-19T09:12:27;13.82;;;13.10;;
11431;SDS011;5772;50.940;6.782;2023-09-19T09:14:54;14.10;;;13.40;;
11431;SDS011;5772;50.940;6.782;2023-09-19T09:17:20;14.48;;;13.65;;
11431;SDS011;5772;50.940;6.782;2023-09-19T09:19:45;14.73;;;14.10;;
11431;SDS011;5772;50.940;6.782;2023-09-19T09:22:11;13.30;;;12.60;;
11431;SDS011;5772;50.940;6.782;2023-09-19T09:24:50;15.82;;;15.02;;
11431;SDS011;5772;50.940;6.782;2023-09-19T09:27:16;14.48;;;13.80;;
11431;SDS011;5772;50.940;6.782;2023-09-19T09:29:42;14.73;;;13.95;;
11431;SDS011;5772;50.940;6.782;2023-09-19T09:32:21;14.10;;;13.30;;
11431;SDS011;5772;50.940;6.782;2023-09-19T09:34:48;14.93;;;13.98;;
11431;SDS011;5772;50.940;6.782;2023-09-19T09:37:14;14.20;;;13.50;;
11431;SDS011;5772;50.940;6.782;2023-09-19T09:39:41;14.18;;;13.35;;
11431;SDS011;5772;50.940;6.782;2023-09-19T09:42:15;14.27;;;13.38;;
11431;SDS011;5772;50.940;6.782;2023-09-19T09:44:57;13.18;;;12.57;;
11431;SDS011;5772;50.940;6.782;2023-09-19T09:47:44;14.80;;;13.93;;
11431;SDS011;5772;50.940;6.782;2023-09-19T09:50:10;15.65;;;14.85;;
11431;SDS011;5772;50.940;6.782;2023-09-19T09:52:44;13.88;;;13.20;;
11431;SDS011;5772;50.940;6.782;2023-09-19T09:55:11;13.20;;;12.30;;
11431;SDS011;5772;50.940;6.782;2023-09-19T09:57:36;15.20;;;14.45;;
11431;SDS011;5772;50.940;6.782;2023-09-19T10:00:02;13.13;;;12.57;;
11431;SDS011;5772;50.940;6.782;2023-09-19T10:02:28;14.85;;;14.05;;
11431;SDS011;5772;50.940;6.782;2023-09-19T10:04:54;13.30;;;12.70;;
11431;SDS011;5772;50.940;6.782;2023-09-19T10:07:26;14.80;;;14.02;;
11431;SDS011;5772;50.940;6.782;2023-09-19T10:09:53;13.80;;;13.18;;
11431;SDS011;5772;50.940;6.782;2023-09-19T10:12:19;13.85;;;13.02;;
11431;SDS011;5772;50.940;6.782;2023-09-19T10:14:45;13.45;;;12.75;;
11431;SDS011;5772;50.940;6.782;2023-09-19T10:17:11;13.60;;;13.00;;
11431;SDS011;5772;50.940;6.782;2023-09-19T10:19:39;15.10;;;14.13;;
11431;SDS011;5772;50.940;6.782;2023-09-19T10:22:07;14.10;;;13.50;;
11431;SDS011;5772;50.940;6.782;2023-09-19T10:24:33;13.70;;;13.05;;
11431;SDS011;5772;50.940;6.782;2023-09-19T10:26:59;14.73;;;14.13;;
11431;SDS011;5772;50.940;6.782;2023-09-19T10:29:26;14.57;;;13.98;;
11431;SDS011;5772;50.940;6.782;2023-09-19T10:31:52;13.90;;;13.18;;
11431;SDS011;5772;50.940;6.782;2023-09-19T10:34:18;15.18;;;14.57;;
11431;SDS011;5772;50.940;6.782;2023-09-19T10:36:44;13.95;;;13.07;;
11431;SDS011;5772;50.940;6.782;2023-09-19T10:39:10;14.65;;;13.95;;
11431;SDS011;5772;50.940;6.782;2023-09-19T10:41:36;14.63;;;13.82;;
11431;SDS011;5772;50.940;6.782;2023-09-19T10:44:02;14.32;;;13.63;;
11431;SDS011;5772;50.940;6.782;2023-09-19T10:46:30;14.77;;;14.07;;
11431;SDS011;5772;50.940;6.782;2023-09-19T10:48:58;14.77;;;13.90;;
11431;SDS011;5772;50.940;6.782;2023-09-19T10:51:24;13.65;;;12.77;;
11431;SDS011;5772;50.940;6.782;2023-09-19T10:53:52;14.95;;;14.07;;
11431;SDS011;5772;50.940;6.782;2023-09-19T10:56:21;13.68;;;12.88;;
11431;SDS011;5772;50.940;6.782;2023-09-19T10:58:48;13.85;;;13.23;;
11431;SDS011;5772;50.940;6.782;2023-09-19T11:01:14;14.43;;;13.73;;
11431;SDS011;5772;50.940;6.782;2023-09-19T11:03:41;14.25;;;13.43;;
11431;SDS011;5772;50.940;6.782;2023-09-19T11:06:08;14.13;;;13.52;;
11431;SDS011;5772;50.940;6.782;2023-09-19T11:14:16;13.77;;;13.00;;
11431;SDS011;5772;50.940;6.782;2023-09-19T11:20:24;13.02;;;12.40;;
11431;SDS011;5772;50.940;6.782;2023-09-19T11:25:45;14.15;;;13.50;;
11431;SDS011;5772;50.940;6.782;2023-09-19T11:28:32;13.98;;;13.38;;
11431;SDS011;5772;50.940;6.782;2023-09-19T11:30:58;14.02;;;13.15;;
11431;SDS011;5772;50.940;6.782;2023-09-19T11:33:25;14.43;;;13.80;;
11431;SDS011;5772;50.940;6.782;2023-09-19T11:36:02;15.43;;;14.52;;
11431;SDS011;5772;50.940;6.782;2023-09-19T11:41:38;14.75;;;14.02;;
11431;SDS011;5772;50.940;6.782;2023-09-19T11:46:58;15.50;;;14.80;;
11431;SDS011;5772;50.940;6.782;2023-09-19T11:49:26;14.90;;;14.15;;
11431;SDS011;5772;50.940;6.782;2023-09-19T11:51:53;14.52;;;13.68;;
11431;SDS011;5772;50.940;6.782;2023-09-19T11:54:20;14.43;;;13.73;;
11431;SDS011;5772;50.940;6.782;2023-09-19T11:56:45;14.13;;;13.13;;
11431;SDS011;5772;50.940;6.782;2023-09-19T11:59:11;13.75;;;13.15;;
11431;SDS011;5772;50.940;6.782;2023-09-19T12:01:50;14.20;;;13.50;;
11431;SDS011;5772;50.940;6.782;2023-09-19T12:04:16;13.20;;;12.55;;
11431;SDS011;5772;50.940;6.782;2023-09-19T12:06:43;13.43;;;12.82;;
11431;SDS011;5772;50.940;6.782;2023-09-19T12:09:13;13.95;;;13.02;;
11431;SDS011;5772;50.940;6.782;2023-09-19T12:11:41;13.23;;;12.57;;
11431;SDS011;5772;50.940;6.782;2023-09-19T12:14:07;14.00;;;13.30;;
11431;SDS011;5772;50.940;6.782;2023-09-19T12:16:33;13.25;;;12.50;;
11431;SDS011;5772;50.940;6.782;2023-09-19T12:18:58;14.40;;;13.70;;
11431;SDS011;5772;50.940;6.782;2023-09-19T12:21:42;13.60;;;12.90;;
11431;SDS011;5772;50.940;6.782;2023-09-19T12:24:12;12.40;;;11.90;;
11431;SDS011;5772;50.940;6.782;2023-09-19T12:26:38;14.25;;;13.52;;
11431;SDS011;5772;50.940;6.782;2023-09-19T12:29:04;12.90;;;12.40;;
11431;SDS011;5772;50.940;6.782;2023-09-19T12:31:30;13.35;;;12.55;;
11431;SDS011;5772;50.940;6.782;2023-09-19T12:33:55;13.85;;;13.25;;
11431;SDS011;5772;50.940;6.782;2023-09-19T12:36:21;13.32;;;12.63;;
11431;SDS011;5772;50.940;6.782;2023-09-19T12:38:47;12.80;;;12.20;;
11431;SDS011;5772;50.940;6.782;2023-09-19T12:41:14;14.00;;;13.30;;
11431;SDS011;5772;50.940;6.782;2023-09-19T12:43:40;13.73;;;12.93;;
11431;SDS011;5772;50.940;6.782;2023-09-19T12:46:05;13.75;;;12.90;;
11431;SDS011;5772;50.940;6.782;2023-09-19T12:48:30;13.65;;;12.98;;
11431;SDS011;5772;50.940;6.782;2023-09-19T12:51:00;13.77;;;13.07;;
11431;SDS011;5772;50.940;6.782;2023-09-19T12:53:28;13.82;;;13.25;;
11431;SDS011;5772;50.940;6.782;2023-09-19T12:55:58;13.25;;;12.63;;
11431;SDS011;5772;50.940;6.782;2023-09-19T12:58:24;15.32;;;14.48;;
11431;SDS011;5772;50.940;6.782;2023-09-19T13:00:50;14.50;;;13.90;;
11431;SDS011;5772;50.940;6.782;2023-09-19T13:03:16;15.80;;;15.07;;
11431;SDS011;5772;50.940;6.782;2023-09-19T13:05:49;15.88;;;15.07;;
11431;SDS011;5772;50.940;6.782;2023-09-19T13:08:18;15.15;;;14.27;;
11431;SDS011;5772;50.940;6.782;2023-09-19T13:10:59;14.57;;;13.55;;
11431;SDS011;5772;50.940;6.782;2023-09-19T13:13:27;15.07;;;14.38;;
11431;SDS011;5772;50.940;6.782;2023-09-19T13:15:52;15.27;;;14.68;;
11431;SDS011;5772;50.940;6.782;2023-09-19T13:18:18;14.15;;;13.55;;
11431;SDS011;5772;50.940;6.782;2023-09-19T13:20:43;15.63;;;14.98;;
11431;SDS011;5772;50.940;6.782;2023-09-19T13:23:09;14.15;;;13.45;;
11431;SDS011;5772;50.940;6.782;2023-09-19T13:25:51;13.07;;;12.57;;
11431;SDS011;5772;50.940;6.782;2023-09-19T13:28:16;12.63;;;12.13;;
11431;SDS011;5772;50.940;6.782;2023-09-19T13:30:43;12.93;;;12.30;;
11431;SDS011;5772;50.940;6.782;2023-09-19T13:33:09;15.25;;;14.63;;
11431;SDS011;5772;50.940;6.782;2023-09-19T13:35:35;15.15;;;14.48;;
11431;SDS011;5772;50.940;6.782;2023-09-19T13:38:00;15.30;;;14.63;;
11431;SDS011;5772;50.940;6.782;2023-09-19T13:40:26;16.70;;;15.98;;
11431;SDS011;5772;50.940;6.782;2023-09-19T13:42:51;14.27;;;13.57;;
11431;SDS011;5772;50.940;6.782;2023-09-19T13:45:16;14.07;;;13.38;;
11431;SDS011;5772;50.940;6.782;2023-09-19T13:47:43;14.60;;;14.00;;
11431;SDS011;5772;50.940;6.782;2023-09-19T13:50:09;14.57;;;13.98;;
11431;SDS011;5772;50.940;6.782;2023-09-19T13:52:34;13.50;;;13.00;;
11431;SDS011;5772;50.940;6.782;2023-09-19T13:55:00;14.00;;;13.25;;
11431;SDS011;5772;50.940;6.782;2023-09-19T13:57:25;14.10;;;13.60;;
11431;SDS011;5772;50.940;6.782;2023-09-19T13:59:51;14.35;;;13.80;;
11431;SDS011;5772;50.940;6.782;2023-09-19T14:02:17;14.80;;;14.10;;
11431;SDS011;5772;50.940;6.782;2023-09-19T14:04:44;14.05;;;13.50;;
11431;SDS011;5772;50.940;6.782;2023-09-19T14:07:09;14.40;;;13.88;;
11431;SDS011;5772;50.940;6.782;2023-09-19T14:09:35;14.75;;;13.80;;
11431;SDS011;5772;50.940;6.782;2023-09-19T14:12:00;15.02;;;14.23;;
11431;SDS011;5772;50.940;6.782;2023-09-19T14:14:26;13.07;;;12.48;;
11431;SDS011;5772;50.940;6.782;2023-09-19T14:16:51;14.55;;;13.82;;
11431;SDS011;5772;50.940;6.782;2023-09-19T14:19:16;14.68;;;14.07;;
11431;SDS011;5772;50.940;6.782;2023-09-19T14:21:43;15.43;;;14.82;;
11431;SDS011;5772;50.940;6.782;2023-09-19T14:24:09;13.75;;;13.00;;
11431;SDS011;5772;50.940;6.782;2023-09-19T14:26:34;15.70;;;15.10;;
11431;SDS011;5772;50.940;6.782;2023-09-19T14:29:00;14.32;;;13.75;;
11431;SDS011;5772;50.940;6.782;2023-09-19T14:31:25;16.05;;;15.35;;
11431;SDS011;5772;50.940;6.782;2023-09-19T14:33:53;14.25;;;13.65;;
11431;SDS011;5772;50.940;6.782;2023-09-19T14:36:19;14.55;;;13.95;;
11431;SDS011;5772;50.940;6.782;2023-09-19T14:38:46;15.15;;;14.45;;
11431;SDS011;5772;50.940;6.782;2023-09-19T14:41:12;17.67;;;16.85;;
11431;SDS011;5772;50.940;6.782;2023-09-19T14:43:37;17.65;;;16.95;;
11431;SDS011;5772;50.940;6.782;2023-09-19T14:46:03;16.98;;;16.27;;
11431;SDS011;5772;50.940;6.782;2023-09-19T14:48:28;17.38;;;16.63;;